Airfield :
LOGIN :

Register | Disclaimer

   EN    FR    IT 

 










Legend :    VFR   Marginal VFR   IFR   Intensive IFR   Very Intensive IFR
Visi :
Ceiling :
>= 8 km
>= 3000ft
5 to 8 km
1000 to 3000 ft
1500m to 5 km
500 to 1000 ft
800 to 1500m
200 to 500 ft
< 800m
< 200 ft
Symbols :   Thunderstorms  Fog  Heavy snow  Heavy precipitations  Wind > 20 kt
SIGMETs :     Misc.  Thunderstorms  Icing  Turbulence  Mountain Waves  Volcanic Ashes






- Airport Elevation : 44 ft
- IATA code : SOU


EGHI - Southampton

CURRENT METAR :
  • 211250Z 35011KT 330V040 9999 FEW020 SCT025 13/08 Q1020

EXPIRED METARs :
  • 211220Z 36008KT 320V040 9999 FEW020 BKN024 13/08 Q1020
  • 211150Z 01009KT 330V030 9999 FEW020 BKN024 13/08 Q1020
  • 211120Z 36010KT 330V030 9999 FEW015 BKN018 13/09 Q1020
  • 211050Z 36010KT 9999 FEW015 BKN020 13/09 Q1019
  • 211020Z 36009KT 330V030 9999 BKN020 12/09 Q1019

TAF TAF EGHI
Valid from the 21 at 12:00 until the 21 at 21:00 UTC


211057Z 2112/2121 34007KT 9999 BKN045
PROB30
TEMPO 2112/2121 BKN014
ATIS : +44 23 8062 7103



MET'MAP, your aeronautical weather chart ! - Copyright ORBIFLY December 2007 - Disclaimer

ORBIFLY MET'MAP TEAM :

Programming & Development : Alexandra Zaïnal
Concept & Development : Baudouin d'Aumeries
Co-Development & Prog : Marc-Olivier Méhu
Technical & hardware support : Manuel Goepfert

Contact : metmap@orbifly.com




SOURCES & CREDITS :

   NOAA